Time;durP1;ratioP1;P1;durP2;ratioP2;P2;SDS_P1;SDS_P2;PMS_P1;PMS_P2;Temp;Humidity;BMP_temperature;BMP_pressure;BME280_temperature;BME280_humidity;BME280_pressure;Samples;Min_cycle;Max_cycle;Signal;HPM_P1;HPM_P2
2023/03/17 00:00:09;;;;;;;9.07;5.55;;;6.80;99.90;;;;;;5012144;28;20451;-55
2023/03/17 00:02:35;;;;;;;8.18;5.82;;;6.80;99.90;;;;;;5011882;28;20084;-52
2023/03/17 00:05:01;;;;;;;6.88;5.55;;;6.70;99.90;;;;;;5012143;28;20069;-52
2023/03/17 00:07:27;;;;;;;6.43;5.13;;;6.60;99.90;;;;;;5011956;28;20018;-52
2023/03/17 00:09:53;;;;;;;8.55;5.30;;;6.70;99.90;;;;;;5011908;28;20104;-55
2023/03/17 00:12:18;;;;;;;6.22;4.90;;;6.70;99.90;;;;;;5010558;28;20192;-54
2023/03/17 00:14:45;;;;;;;10.13;5.10;;;6.70;99.90;;;;;;5010333;28;20454;-53
2023/03/17 00:17:13;;;;;;;8.10;4.90;;;6.70;99.90;;;;;;5012028;28;20026;-53
2023/03/17 00:19:40;;;;;;;7.50;5.00;;;6.60;99.90;;;;;;5011918;28;20441;-51
2023/03/17 00:22:15;;;;;;;6.93;5.35;;;6.70;99.90;;;;;;5010575;28;20034;-54
2023/03/17 00:24:42;;;;;;;7.57;5.53;;;6.70;99.90;;;;;;5011967;28;20067;-51
2023/03/17 00:27:12;;;;;;;8.55;5.63;;;6.60;99.90;;;;;;5011766;28;20026;-54
2023/03/17 00:29:39;;;;;;;5.88;5.05;;;6.70;99.90;;;;;;5011824;28;20018;-51
2023/03/17 00:32:11;;;;;;;7.13;4.82;;;6.70;99.90;;;;;;5012246;28;20113;-53
2023/03/17 00:34:37;;;;;;;10.20;5.55;;;6.70;99.90;;;;;;5012051;28;20030;-54
2023/03/17 00:37:03;;;;;;;7.10;5.18;;;6.70;99.90;;;;;;5012672;28;20033;-56
2023/03/17 00:39:28;;;;;;;10.07;5.60;;;6.80;99.90;;;;;;5013746;28;20037;-52
2023/03/17 00:41:54;;;;;;;8.55;5.82;;;6.70;99.90;;;;;;5012153;28;20052;-54
2023/03/17 00:44:19;;;;;;;9.38;5.57;;;6.70;99.90;;;;;;5012027;28;20030;-57
2023/03/17 00:46:45;;;;;;;8.80;5.03;;;6.70;99.90;;;;;;5012837;28;20041;-52
2023/03/17 00:49:20;;;;;;;9.63;4.85;;;6.60;99.90;;;;;;5013655;28;20362;-53
2023/03/17 00:51:47;;;;;;;11.90;5.68;;;6.60;99.90;;;;;;5013141;28;20097;-56
2023/03/17 00:54:14;;;;;;;5.88;4.80;;;6.50;99.90;;;;;;5012747;28;20049;-53
2023/03/17 00:56:41;;;;;;;8.88;5.18;;;6.50;99.90;;;;;;5011693;28;20026;-55
2023/03/17 00:59:21;;;;;;;8.13;4.68;;;6.40;99.90;;;;;;5010596;28;20034;-54
2023/03/17 01:01:47;;;;;;;8.68;5.18;;;6.50;99.90;;;;;;5011880;28;20030;-56
2023/03/17 01:04:14;;;;;;;5.72;4.90;;;6.50;99.90;;;;;;5011784;28;20065;-53
2023/03/17 01:06:40;;;;;;;6.95;4.65;;;6.50;99.90;;;;;;5011657;28;20022;-53
2023/03/17 01:09:07;;;;;;;10.10;4.78;;;6.40;99.90;;;;;;5011667;28;20030;-55
2023/03/17 01:11:32;;;;;;;6.25;4.72;;;6.40;99.90;;;;;;5011560;28;20022;-53
2023/03/17 01:13:58;;;;;;;12.18;5.28;;;6.40;99.90;;;;;;5011749;28;20018;-52
2023/03/17 01:16:23;;;;;;;8.13;5.07;;;6.40;99.90;;;;;;5010185;28;20026;-53
2023/03/17 01:18:49;;;;;;;6.07;4.88;;;6.50;99.90;;;;;;5011568;28;20428;-59
2023/03/17 01:21:14;;;;;;;6.72;4.57;;;6.50;99.90;;;;;;5011282;28;20106;-53
2023/03/17 01:23:41;;;;;;;7.40;4.53;;;6.40;99.90;;;;;;5011384;28;20065;-54
2023/03/17 01:26:06;;;;;;;5.10;4.60;;;6.40;99.90;;;;;;5011840;28;20030;-54
2023/03/17 01:28:32;;;;;;;6.88;4.60;;;6.40;99.90;;;;;;5015065;28;20030;-53
2023/03/17 01:30:58;;;;;;;7.25;4.68;;;6.40;99.90;;;;;;5015163;28;20034;-56
2023/03/17 01:33:24;;;;;;;7.15;4.40;;;6.40;99.90;;;;;;5015441;28;20029;-56
2023/03/17 01:35:50;;;;;;;6.18;4.35;;;6.50;99.90;;;;;;5014835;28;20371;-57
2023/03/17 01:38:16;;;;;;;11.15;4.95;;;6.50;99.90;;;;;;5014949;28;20018;-59
2023/03/17 01:40:48;;;;;;;9.15;4.97;;;6.50;99.90;;;;;;5013023;28;20021;-57
2023/03/17 01:43:24;;;;;;;5.72;4.50;;;6.50;99.90;;;;;;5014478;28;20026;-57
2023/03/17 01:46:08;;;;;;;;;;;6.50;99.90;;;;;;5014957;28;20030;-55
2023/03/17 01:48:39;;;;;;;5.50;4.38;;;6.60;99.90;;;;;;5014673;28;20328;-51
2023/03/17 01:51:07;;;;;;;5.55;4.80;;;6.50;99.90;;;;;;5013942;28;20049;-55
2023/03/17 01:53:34;;;;;;;4.63;4.20;;;6.50;99.90;;;;;;5014455;28;20034;-52
2023/03/17 01:56:01;;;;;;;9.15;4.15;;;6.50;99.90;;;;;;5014409;28;20390;-57
2023/03/17 01:58:28;;;;;;;5.82;4.50;;;6.50;99.90;;;;;;5013321;28;20030;-56
2023/03/17 02:00:54;;;;;;;6.50;4.45;;;6.40;99.90;;;;;;5014190;28;20025;-54
2023/03/17 02:03:21;;;;;;;7.95;4.80;;;6.40;99.90;;;;;;5014202;28;20159;-56
2023/03/17 02:05:50;;;;;;;7.25;4.60;;;6.40;99.90;;;;;;5014336;28;20030;-58
2023/03/17 02:08:16;;;;;;;7.20;4.13;;;6.40;99.90;;;;;;5014192;28;20022;-54
2023/03/17 02:10:43;;;;;;;8.05;4.78;;;6.50;99.90;;;;;;5013968;28;20022;-53
2023/03/17 02:13:11;;;;;;;6.93;4.93;;;6.50;99.90;;;;;;5013944;28;20404;-57
2023/03/17 02:15:36;;;;;;;6.35;4.57;;;6.50;99.90;;;;;;5013895;28;20030;-53
2023/03/17 02:18:02;;;;;;;8.90;4.47;;;6.50;99.90;;;;;;5013904;28;20500;-51
2023/03/17 02:20:28;;;;;;;5.53;4.70;;;6.40;99.90;;;;;;5013945;28;20076;-55
2023/03/17 02:22:56;;;;;;;7.35;4.95;;;6.40;99.90;;;;;;5012655;28;20121;-59
2023/03/17 02:25:23;;;;;;;6.32;5.20;;;6.40;99.90;;;;;;5012489;28;20402;-59
2023/03/17 02:27:53;;;;;;;8.85;5.10;;;6.30;99.90;;;;;;5013806;28;20021;-55
2023/03/17 02:30:22;;;;;;;6.78;4.88;;;6.30;99.90;;;;;;5013531;28;20045;-55
2023/03/17 02:32:49;;;;;;;11.57;4.45;;;6.20;99.90;;;;;;5013737;28;20068;-52
2023/03/17 02:35:15;;;;;;;7.60;5.65;;;6.20;99.90;;;;;;5013641;28;20030;-55
2023/03/17 02:37:42;;;;;;;7.78;5.15;;;6.10;99.90;;;;;;5013212;28;20026;-55
2023/03/17 02:40:10;;;;;;;5.75;4.55;;;6.20;99.90;;;;;;5013393;28;20087;-59
2023/03/17 02:42:38;;;;;;;9.27;4.75;;;6.10;99.90;;;;;;5013444;28;20105;-54
2023/03/17 02:45:07;;;;;;;6.50;5.45;;;6.00;99.90;;;;;;5013426;28;20030;-50
2023/03/17 02:47:33;;;;;;;5.68;4.75;;;5.90;99.90;;;;;;5012060;28;20022;-53
2023/03/17 02:49:59;;;;;;;8.85;4.57;;;5.80;99.90;;;;;;5012036;28;20496;-50
2023/03/17 02:52:25;;;;;;;4.95;4.28;;;5.80;99.90;;;;;;5012926;28;20087;-54
2023/03/17 02:54:50;;;;;;;6.45;4.47;;;5.80;99.90;;;;;;5013196;28;20482;-53
2023/03/17 02:57:16;;;;;;;6.75;4.68;;;5.80;99.90;;;;;;5011739;28;20032;-54
2023/03/17 02:59:41;;;;;;;7.47;4.68;;;5.80;99.90;;;;;;5012965;28;20480;-55
2023/03/17 03:02:08;;;;;;;6.47;4.68;;;5.80;99.90;;;;;;5013128;28;20026;-53
2023/03/17 03:04:33;;;;;;;4.88;4.20;;;5.80;99.90;;;;;;5013108;28;20026;-58
2023/03/17 03:06:59;;;;;;;5.72;4.18;;;5.80;99.90;;;;;;5012990;28;20041;-59
2023/03/17 03:09:24;;;;;;;7.25;4.28;;;5.70;99.90;;;;;;5012875;28;20032;-53
2023/03/17 03:11:51;;;;;;;7.53;4.70;;;5.70;99.90;;;;;;5012769;28;20075;-55
2023/03/17 03:14:16;;;;;;;6.57;5.13;;;5.60;99.90;;;;;;5012955;28;20033;-55
2023/03/17 03:16:42;;;;;;;5.50;4.40;;;5.60;99.90;;;;;;5012950;28;20026;-52
2023/03/17 03:19:08;;;;;;;10.63;4.80;;;5.60;99.90;;;;;;5012808;28;20128;-53
2023/03/17 03:21:34;;;;;;;5.57;4.57;;;5.60;99.90;;;;;;5012658;28;20049;-57
2023/03/17 03:24:00;;;;;;;9.68;4.78;;;5.70;99.90;;;;;;5012547;28;20113;-56
2023/03/17 03:26:26;;;;;;;5.15;4.57;;;5.70;99.90;;;;;;5012472;28;20421;-54
2023/03/17 03:28:52;;;;;;;9.70;5.50;;;5.70;99.90;;;;;;5012512;28;20014;-53
2023/03/17 03:31:18;;;;;;;7.50;4.97;;;5.60;99.90;;;;;;5012449;28;20130;-56
2023/03/17 03:33:44;;;;;;;6.80;4.75;;;5.60;99.90;;;;;;5012835;28;20158;-56
2023/03/17 03:36:10;;;;;;;7.45;5.60;;;5.70;99.90;;;;;;5012554;28;20281;-53
2023/03/17 03:38:35;;;;;;;7.88;5.00;;;5.70;99.90;;;;;;5012436;28;20029;-54
2023/03/17 03:41:01;;;;;;;11.23;5.13;;;5.70;99.90;;;;;;5012175;28;20026;-54
2023/03/17 03:43:27;;;;;;;7.20;4.63;;;5.60;99.90;;;;;;5012390;28;20033;-52
2023/03/17 03:45:53;;;;;;;5.97;4.85;;;5.60;99.90;;;;;;5012497;28;20026;-56
2023/03/17 03:48:20;;;;;;;7.00;5.47;;;5.60;99.90;;;;;;5012225;28;20037;-57
2023/03/17 03:50:46;;;;;;;11.52;5.90;;;5.50;99.90;;;;;;5011740;28;20106;-53
2023/03/17 03:53:12;;;;;;;6.55;5.32;;;5.50;99.90;;;;;;5012563;28;20517;-51
2023/03/17 03:55:38;;;;;;;6.20;5.25;;;5.40;99.90;;;;;;5010921;28;20409;-54
2023/03/17 03:58:03;;;;;;;8.13;5.50;;;5.40;99.90;;;;;;5012002;28;20032;-56
2023/03/17 04:00:29;;;;;;;5.97;5.00;;;5.40;99.90;;;;;;5012525;28;20038;-58
2023/03/17 04:02:54;;;;;;;5.55;4.82;;;5.40;99.90;;;;;;5012070;28;20449;-54
2023/03/17 04:05:21;;;;;;;5.68;4.75;;;5.40;99.90;;;;;;5011923;28;20029;-55
2023/03/17 04:07:46;;;;;;;5.63;4.53;;;5.40;99.90;;;;;;5010683;28;20076;-52
2023/03/17 04:10:14;;;;;;;5.65;5.05;;;5.40;99.90;;;;;;5012576;28;20480;-54
2023/03/17 04:12:40;;;;;;;5.45;4.88;;;5.40;99.90;;;;;;5011884;28;20029;-56
2023/03/17 04:15:08;;;;;;;7.53;4.53;;;5.40;99.90;;;;;;5012997;28;20037;-56
2023/03/17 04:17:33;;;;;;;6.05;5.13;;;5.30;99.90;;;;;;5012287;28;20036;-58
2023/03/17 04:19:59;;;;;;;8.40;4.93;;;5.30;99.90;;;;;;5012349;28;20033;-56
2023/03/17 04:22:25;;;;;;;5.00;4.43;;;5.20;99.90;;;;;;5013419;28;20036;-59
2023/03/17 04:24:51;;;;;;;8.90;4.88;;;5.20;99.90;;;;;;5012786;28;20073;-57
2023/03/17 04:27:16;;;;;;;6.38;4.60;;;5.10;99.90;;;;;;5011842;28;20053;-54
2023/03/17 04:29:42;;;;;;;7.70;5.13;;;5.20;99.90;;;;;;5011748;28;20026;-55
2023/03/17 04:32:10;;;;;;;5.82;4.93;;;5.10;99.90;;;;;;5011720;28;20434;-55
2023/03/17 04:34:35;;;;;;;10.50;5.78;;;5.10;99.90;;;;;;5011705;28;20027;-56
2023/03/17 04:37:01;;;;;;;7.20;5.30;;;5.20;99.90;;;;;;5011755;28;20036;-56
2023/03/17 04:39:27;;;;;;;5.38;4.85;;;5.10;99.90;;;;;;5011589;28;20474;-56
2023/03/17 04:41:52;;;;;;;5.90;5.00;;;5.10;99.90;;;;;;5010244;28;20445;-58
2023/03/17 04:44:18;;;;;;;8.13;5.63;;;5.00;99.90;;;;;;5011443;28;20212;-57
2023/03/17 04:46:43;;;;;;;6.45;5.18;;;5.00;99.90;;;;;;5011478;28;20022;-57
2023/03/17 04:49:09;;;;;;;6.35;4.97;;;5.00;99.90;;;;;;5011650;28;20045;-56
2023/03/17 04:51:35;;;;;;;6.70;4.88;;;4.90;99.90;;;;;;5011228;28;20026;-53
2023/03/17 04:54:01;;;;;;;8.75;4.28;;;4.90;99.90;;;;;;5011615;28;20075;-61
2023/03/17 04:56:27;;;;;;;6.78;4.90;;;4.90;99.90;;;;;;5011385;28;20026;-55
2023/03/17 04:58:53;;;;;;;8.05;5.20;;;4.90;99.90;;;;;;5011380;28;20053;-55
2023/03/17 05:01:20;;;;;;;8.10;6.07;;;4.90;99.90;;;;;;5014056;28;20497;-55
2023/03/17 05:03:46;;;;;;;8.00;5.80;;;4.90;99.90;;;;;;5014184;28;20056;-54
2023/03/17 05:06:12;;;;;;;6.90;5.00;;;4.90;99.90;;;;;;5014116;28;20523;-59
2023/03/17 05:08:37;;;;;;;7.22;4.97;;;5.00;99.90;;;;;;5015322;28;20045;-54
2023/03/17 05:11:03;;;;;;;6.45;4.53;;;5.00;99.90;;;;;;5015215;28;20212;-54
2023/03/17 05:13:29;;;;;;;6.85;4.72;;;5.00;99.90;;;;;;5015117;28;20112;-54
2023/03/17 05:15:55;;;;;;;5.72;4.80;;;5.00;99.90;;;;;;5015113;28;20454;-55
2023/03/17 05:18:23;;;;;;;9.43;5.07;;;4.90;99.90;;;;;;5015205;28;20049;-56
2023/03/17 05:20:49;;;;;;;11.77;6.45;;;4.90;99.90;;;;;;5014917;28;20038;-53
2023/03/17 05:23:14;;;;;;;5.40;4.40;;;4.80;99.90;;;;;;5013551;28;20022;-51
2023/03/17 05:25:40;;;;;;;5.70;4.60;;;4.70;99.90;;;;;;5014925;28;20489;-54
2023/03/17 05:28:06;;;;;;;6.72;4.38;;;4.70;99.90;;;;;;5014771;28;20065;-54
2023/03/17 05:30:32;;;;;;;6.75;4.97;;;4.60;99.90;;;;;;5014737;28;20024;-52
2023/03/17 05:32:59;;;;;;;6.32;4.85;;;4.60;99.90;;;;;;5014699;28;20030;-55
2023/03/17 05:35:25;;;;;;;5.85;4.63;;;4.50;99.90;;;;;;5014904;28;20022;-56
2023/03/17 05:37:51;;;;;;;5.57;4.45;;;4.50;99.90;;;;;;5014637;28;20041;-57
2023/03/17 05:40:17;;;;;;;5.90;4.60;;;4.50;99.90;;;;;;5014518;28;20164;-59
2023/03/17 05:42:42;;;;;;;6.20;4.95;;;4.50;99.90;;;;;;5014477;28;20050;-54
2023/03/17 05:45:08;;;;;;;5.95;5.22;;;4.50;99.90;;;;;;5014667;28;20026;-51
2023/03/17 05:47:35;;;;;;;8.73;5.30;;;4.50;99.90;;;;;;5014553;28;20061;-51
2023/03/17 05:50:01;;;;;;;10.48;6.53;;;4.40;99.90;;;;;;5014379;28;20022;-51
2023/03/17 05:52:27;;;;;;;9.15;5.90;;;4.40;99.90;;;;;;5014292;28;20026;-52
2023/03/17 05:54:53;;;;;;;7.47;5.68;;;4.40;99.90;;;;;;5014449;28;20041;-53
2023/03/17 05:57:19;;;;;;;10.73;5.50;;;4.40;99.90;;;;;;5014325;28;20030;-52
2023/03/17 05:59:45;;;;;;;10.13;6.32;;;4.40;99.90;;;;;;5014536;28;20038;-56
2023/03/17 06:02:11;;;;;;;8.07;6.20;;;4.50;99.90;;;;;;5014626;28;20383;-55
2023/03/17 06:04:38;;;;;;;7.60;5.82;;;4.60;99.90;;;;;;5014615;28;20101;-58
2023/03/17 06:07:05;;;;;;;9.00;5.95;;;4.70;99.90;;;;;;5015078;28;20513;-57
2023/03/17 06:09:31;;;;;;;11.77;6.45;;;4.70;99.90;;;;;;5014150;28;20021;-55
2023/03/17 06:11:56;;;;;;;12.30;6.10;;;4.70;99.90;;;;;;5013913;28;20029;-56
2023/03/17 06:14:22;;;;;;;12.27;6.13;;;4.80;99.90;;;;;;5014140;28;20021;-57
2023/03/17 06:16:48;;;;;;;10.60;5.47;;;5.00;99.90;;;;;;5014206;28;20021;-51
2023/03/17 06:19:13;;;;;;;6.03;5.35;;;5.20;99.90;;;;;;5014133;28;20044;-56
2023/03/17 06:21:39;;;;;;;8.68;6.07;;;5.40;99.90;;;;;;5014989;28;20034;-52
2023/03/17 06:24:05;;;;;;;11.65;5.68;;;5.90;99.90;;;;;;5014690;28;20406;-59
2023/03/17 06:26:31;;;;;;;9.25;5.43;;;6.40;99.90;;;;;;5014087;28;20022;-55
2023/03/17 06:28:57;;;;;;;7.53;5.50;;;6.90;99.90;;;;;;5013873;28;20018;-54
2023/03/17 06:33:56;;;;;;;5.40;4.25;;;8.00;99.90;;;;;;5010624;28;20046;-50
2023/03/17 06:36:22;;;;;;;7.28;4.85;;;8.50;99.90;;;;;;5013222;28;20041;-49
2023/03/17 06:38:48;;;;;;;5.80;4.38;;;9.20;99.90;;;;;;5013023;28;20025;-47
2023/03/17 06:41:13;;;;;;;5.93;4.65;;;9.70;99.90;;;;;;5013377;28;20026;-53
2023/03/17 06:43:40;;;;;;;7.70;4.18;;;10.00;99.90;;;;;;5013323;28;20037;-49
2023/03/17 06:46:06;;;;;;;6.63;4.40;;;10.70;99.90;;;;;;5013436;28;20093;-50
2023/03/17 06:48:32;;;;;;;8.07;4.10;;;11.10;99.50;;;;;;5013440;28;20029;-51
2023/03/17 06:50:58;;;;;;;5.70;4.18;;;11.30;99.80;;;;;;5012792;28;20107;-52
2023/03/17 06:53:24;;;;;;;6.47;4.85;;;11.80;98.80;;;;;;5013376;28;20093;-51
2023/03/17 06:55:49;;;;;;;6.35;4.47;;;12.50;97.80;;;;;;5013471;28;20540;-54
2023/03/17 06:58:15;;;;;;;12.35;5.07;;;13.20;96.40;;;;;;5013144;28;20025;-54
2023/03/17 07:00:42;;;;;;;5.68;4.18;;;13.60;94.60;;;;;;5012954;28;20025;-52
2023/03/17 07:03:08;;;;;;;5.82;5.00;;;13.70;94.60;;;;;;5013004;28;20104;-53
2023/03/17 07:05:34;;;;;;;6.95;3.88;;;14.10;94.40;;;;;;5013094;28;20117;-52
2023/03/17 07:08:00;;;;;;;5.63;4.13;;;14.30;93.30;;;;;;5012987;28;20105;-52
2023/03/17 07:10:25;;;;;;;5.47;4.03;;;14.90;92.50;;;;;;5012960;28;20026;-49
2023/03/17 07:12:51;;;;;;;5.78;3.92;;;15.30;92.00;;;;;;5012770;28;20422;-54
2023/03/17 07:15:17;;;;;;;5.70;4.05;;;15.40;90.90;;;;;;5012846;28;20437;-51
2023/03/17 07:17:45;;;;;;;4.63;4.07;;;15.70;90.30;;;;;;5012701;28;20473;-48
2023/03/17 07:20:10;;;;;;;4.55;4.07;;;15.70;89.40;;;;;;4994865;28;20477;-53
2023/03/17 07:22:36;;;;;;;5.35;4.32;;;15.30;89.90;;;;;;5012691;28;20088;-49
2023/03/17 07:25:02;;;;;;;5.80;4.47;;;14.70;91.30;;;;;;5011646;28;20030;-48
2023/03/17 07:27:28;;;;;;;6.63;4.85;;;14.70;91.60;;;;;;5012489;28;20018;-54
2023/03/17 07:29:53;;;;;;;6.13;4.35;;;14.60;91.80;;;;;;5012963;28;20435;-48
2023/03/17 07:32:19;;;;;;;4.82;4.32;;;14.70;92.00;;;;;;5012105;28;20026;-53
2023/03/17 07:34:44;;;;;;;5.93;4.38;;;14.90;91.80;;;;;;5012417;28;20026;-51
2023/03/17 07:37:11;;;;;;;6.90;4.65;;;15.20;91.20;;;;;;5012515;28;20030;-51
2023/03/17 07:39:37;;;;;;;8.63;4.28;;;15.40;91.30;;;;;;5012460;28;20452;-50
2023/03/17 07:42:02;;;;;;;5.38;4.10;;;15.70;90.90;;;;;;5012308;28;20022;-49
2023/03/17 07:44:29;;;;;;;5.10;4.28;;;16.30;90.20;;;;;;4994736;28;20026;-50
2023/03/17 07:46:55;;;;;;;11.10;4.13;;;16.80;88.60;;;;;;5012083;28;20018;-54
2023/03/17 07:49:21;;;;;;;7.55;3.70;;;17.00;86.60;;;;;;5012156;28;20018;-52
2023/03/17 07:51:46;;;;;;;4.32;3.67;;;17.40;85.30;;;;;;5011747;28;20034;-50
2023/03/17 07:54:13;;;;;;;5.43;3.60;;;17.80;84.00;;;;;;5012287;28;20030;-53
2023/03/17 07:56:39;;;;;;;9.65;3.75;;;17.80;82.90;;;;;;5012533;28;20057;-50
2023/03/17 07:59:09;;;;;;;4.65;3.67;;;17.10;83.80;;;;;;5011833;28;20436;-50
2023/03/17 08:01:35;;;;;;;5.03;4.10;;;16.10;86.30;;;;;;5012244;28;20022;-50
2023/03/17 08:04:01;;;;;;;4.30;3.85;;;14.80;90.10;;;;;;5012018;28;20160;-50
2023/03/17 08:06:27;;;;;;;11.02;5.15;;;14.00;92.10;;;;;;5012062;28;20052;-48
2023/03/17 08:08:53;;;;;;;7.97;4.18;;;13.30;93.30;;;;;;5012024;28;20036;-48
2023/03/17 08:11:19;;;;;;;7.70;4.90;;;12.70;94.60;;;;;;5011888;28;20030;-48
2023/03/17 08:13:45;;;;;;;12.05;5.00;;;12.20;96.10;;;;;;5012204;28;20026;-49
2023/03/17 08:16:11;;;;;;;6.05;4.75;;;11.80;97.50;;;;;;5012067;28;20432;-52
2023/03/17 08:18:37;;;;;;;7.97;4.70;;;11.40;98.10;;;;;;5010833;28;20108;-48
2023/03/17 08:21:03;;;;;;;6.65;4.32;;;11.20;99.40;;;;;;5011494;28;20021;-49
2023/03/17 08:23:29;;;;;;;5.45;4.30;;;11.10;99.70;;;;;;5011482;28;20367;-51
2023/03/17 08:25:57;;;;;;;7.38;5.07;;;10.80;99.90;;;;;;5011572;28;20540;-48
2023/03/17 08:28:22;;;;;;;10.90;4.72;;;10.70;99.90;;;;;;5011577;28;20029;-52
2023/03/17 08:30:49;;;;;;;10.15;5.32;;;10.60;99.90;;;;;;5010572;28;20458;-50
2023/03/17 08:33:14;;;;;;;8.13;5.13;;;10.60;99.90;;;;;;5010071;28;20022;-51
2023/03/17 08:35:40;;;;;;;10.10;5.68;;;10.60;99.90;;;;;;5010385;28;20026;-49
2023/03/17 08:38:07;;;;;;;8.85;4.63;;;;;;;;;;5009887;28;20117;-51
2023/03/17 08:40:33;;;;;;;7.40;4.95;;;10.70;99.90;;;;;;5010460;28;20026;-50
2023/03/17 08:42:58;;;;;;;11.98;5.32;;;10.80;99.90;;;;;;4993016;28;20037;-53
2023/03/17 08:45:24;;;;;;;10.25;5.00;;;10.90;99.90;;;;;;5010682;28;20022;-51
2023/03/17 08:47:50;;;;;;;6.75;4.85;;;11.00;99.90;;;;;;5010835;28;20022;-50
2023/03/17 08:50:19;;;;;;;8.57;5.32;;;11.10;99.90;;;;;;5011274;28;20022;-50
2023/03/17 08:52:45;;;;;;;6.55;5.45;;;11.10;99.90;;;;;;5009392;28;20157;-50
2023/03/17 08:55:13;;;;;;;7.85;5.82;;;11.10;99.90;;;;;;5010545;28;20109;-49
2023/03/17 08:57:38;;;;;;;10.32;6.10;;;11.20;99.90;;;;;;5011123;28;20030;-49
2023/03/17 09:00:11;;;;;;;12.52;6.15;;;11.30;99.90;;;;;;5011217;28;20105;-52
2023/03/17 09:02:37;;;;;;;11.13;6.53;;;11.30;99.90;;;;;;5011487;28;20026;-49
2023/03/17 09:05:05;;;;;;;9.15;6.22;;;11.30;99.90;;;;;;5011608;28;20052;-50
2023/03/17 09:07:31;;;;;;;9.13;6.18;;;11.40;99.90;;;;;;5011581;28;20026;-51
2023/03/17 09:09:58;;;;;;;10.55;6.38;;;11.40;99.90;;;;;;5011275;28;20077;-49
2023/03/17 09:12:23;;;;;;;10.73;6.28;;;11.50;99.90;;;;;;4993856;28;20026;-50
2023/03/17 09:14:49;;;;;;;10.45;5.82;;;12.20;99.90;;;;;;5011751;28;20021;-50
2023/03/17 09:17:15;;;;;;;8.00;6.00;;;13.30;99.30;;;;;;5011237;28;20106;-55
2023/03/17 09:19:40;;;;;;;6.53;5.65;;;14.90;97.50;;;;;;5011257;28;20021;-52
2023/03/17 09:22:06;;;;;;;6.68;4.82;;;16.30;93.20;;;;;;5011219;28;20030;-49
2023/03/17 09:24:32;;;;;;;8.80;5.55;;;16.90;92.20;;;;;;4993809;28;20036;-51
2023/03/17 09:27:00;;;;;;;7.00;5.07;;;16.90;91.50;;;;;;5011256;28;20029;-51
2023/03/17 09:29:26;;;;;;;7.63;5.03;;;17.00;91.70;;;;;;5011103;28;20401;-55
2023/03/17 09:31:52;;;;;;;6.82;5.40;;;16.80;90.90;;;;;;5011043;28;20038;-50
2023/03/17 09:34:18;;;;;;;9.52;5.75;;;16.70;91.30;;;;;;5011324;28;20141;-51
2023/03/17 09:36:44;;;;;;;7.95;4.85;;;;;;;;;;5011361;28;20140;-49
2023/03/17 09:39:10;;;;;;;7.20;5.55;;;16.70;90.60;;;;;;5011142;28;20026;-52
2023/03/17 09:42:00;;;;;;;5.95;5.07;;;16.60;90.60;;;;;;5011160;28;20026;-49
2023/03/17 09:44:39;;;;;;;10.10;5.30;;;16.10;91.20;;;;;;5011239;28;20022;-51
2023/03/17 09:47:32;;;;;;;5.35;4.50;;;15.80;91.70;;;;;;5011467;28;20076;-48
2023/03/17 09:50:00;;;;;;;6.53;4.70;;;15.80;91.50;;;;;;5014206;28;20549;-52
2023/03/17 09:52:30;;;;;;;5.68;4.93;;;15.80;91.60;;;;;;5014770;28;20625;-52
2023/03/17 09:54:56;;;;;;;8.93;4.63;;;15.60;91.60;;;;;;5014568;28;20026;-49
2023/03/17 09:57:26;;;;;;;8.57;4.50;;;15.50;91.80;;;;;;4996402;28;20033;-52
2023/03/17 10:00:05;;;;;;;8.25;5.10;;;15.40;92.00;;;;;;5014655;28;20469;-52
2023/03/17 10:02:36;;;;;;;7.47;5.60;;;15.10;92.50;;;;;;5014127;28;20069;-49
2023/03/17 10:05:31;;;;;;;4.68;4.28;;;14.80;92.40;;;;;;5014322;28;20030;-49
2023/03/17 10:08:12;;;;;;;6.60;4.85;;;14.60;93.00;;;;;;5014280;28;20097;-53
2023/03/17 10:11:15;;;;;;;7.40;4.82;;;14.60;93.30;;;;;;5014176;28;20018;-49
2023/03/17 10:13:53;;;;;;;5.40;4.85;;;14.60;93.40;;;;;;4972993;28;20536;-51
2023/03/17 10:16:24;;;;;;;8.60;5.43;;;14.70;96.30;;;;;;5012872;28;20112;-55
2023/03/17 10:19:06;;;;;;;7.30;4.53;;;14.40;93.30;;;;;;5013997;28;20018;-48
2023/03/17 10:21:33;;;;;;;5.72;4.90;;;14.20;93.60;;;;;;5014583;28;20021;-50
2023/03/17 10:24:02;;;;;;;5.85;4.70;;;14.10;94.10;;;;;;5013752;28;20502;-52
2023/03/17 10:26:42;;;;;;;7.18;5.05;;;14.10;94.60;;;;;;5012525;28;20026;-48
2023/03/17 10:29:15;;;;;;;5.97;4.68;;;14.20;94.50;;;;;;4994684;28;20563;-48
2023/03/17 10:31:40;;;;;;;6.90;4.43;;;14.10;94.10;;;;;;4993581;28;20170;-52
2023/03/17 10:34:13;;;;;;;7.80;4.85;;;14.10;94.70;;;;;;5013367;28;20096;-53
2023/03/17 10:36:43;;;;;;;5.47;4.40;;;14.00;94.80;;;;;;5013545;28;20030;-49
2023/03/17 10:39:13;;;;;;;5.53;4.68;;;14.10;94.70;;;;;;5012969;28;20045;-54
2023/03/17 10:41:46;;;;;;;5.82;4.65;;;14.20;94.80;;;;;;5014843;28;20018;-54
2023/03/17 10:44:32;;;;;;;4.95;4.32;;;14.30;95.10;;;;;;5014863;28;20101;-54
2023/03/17 10:46:58;;;;;;;7.07;4.95;;;14.40;94.70;;;;;;5014586;28;20026;-54
2023/03/17 10:49:25;;;;;;;5.90;5.20;;;14.40;94.40;;;;;;5017249;28;20046;-54
2023/03/17 10:51:52;;;;;;;6.45;5.35;;;14.50;94.30;;;;;;5016861;28;20049;-53
2023/03/17 10:54:19;;;;;;;7.55;6.22;;;14.50;94.60;;;;;;5014599;28;20096;-51
2023/03/17 10:56:54;;;;;;;13.60;8.10;;;14.60;94.80;;;;;;5013406;28;20053;-52
2023/03/17 10:59:27;;;;;;;7.30;6.28;;;14.60;95.00;;;;;;5013237;28;20029;-51
2023/03/17 11:01:57;;;;;;;6.13;5.47;;;14.70;95.20;;;;;;5012938;28;20048;-56
2023/03/17 11:04:34;;;;;;;9.77;5.50;;;14.80;95.80;;;;;;5012949;28;20036;-48
2023/03/17 11:07:09;;;;;;;14.00;5.30;;;14.90;94.40;;;;;;5012288;28;20242;-47
2023/03/17 11:09:36;;;;;;;8.07;5.90;;;15.00;94.40;;;;;;4992337;28;20049;-53
2023/03/17 11:12:26;;;;;;;10.00;6.25;;;14.90;94.80;;;;;;5010645;28;20018;-47
2023/03/17 11:15:02;;;;;;;7.00;5.00;;;14.90;95.00;;;;;;5011963;28;20056;-50
2023/03/17 11:17:52;;;;;;;8.63;5.82;;;15.00;95.30;;;;;;5012731;28;20433;-50
2023/03/17 11:20:39;;;;;;;6.35;5.28;;;15.00;95.80;;;;;;5032666;28;20396;-54
2023/03/17 11:23:11;;;;;;;6.40;5.00;;;15.20;95.50;;;;;;5032395;28;20507;-50
2023/03/17 11:25:43;;;;;;;10.38;5.45;;;15.20;94.30;;;;;;5032597;28;20060;-52
2023/03/17 11:28:26;;;;;;;7.28;5.43;;;15.20;94.40;;;;;;5014591;28;20073;-50
2023/03/17 11:31:25;;;;;;;9.18;5.65;;;15.10;94.60;;;;;;5018917;28;20389;-52
2023/03/17 11:34:30;;;;;;;12.10;5.38;;;15.10;94.90;;;;;;5011364;28;20033;-49
2023/03/17 11:37:05;;;;;;;10.15;5.43;;;15.20;95.00;;;;;;5012022;28;20026;-51
2023/03/17 11:39:37;;;;;;;10.52;4.88;;;15.20;94.60;;;;;;5012615;28;20052;-50
2023/03/17 11:42:26;;;;;;;9.43;5.10;;;15.30;94.50;;;;;;5012240;28;20100;-46
2023/03/17 11:45:02;;;;;;;6.50;5.25;;;15.40;95.20;;;;;;5012245;28;20432;-48
2023/03/17 11:47:55;;;;;;;7.05;5.32;;;15.60;94.90;;;;;;5012578;28;20022;-48
2023/03/17 11:50:26;;;;;;;7.88;6.22;;;15.70;95.00;;;;;;5012689;28;20026;-54
2023/03/17 11:53:06;;;;;;;11.60;8.63;;;15.80;94.80;;;;;;4994859;28;20109;-47
2023/03/17 11:55:46;;;;;;;10.30;7.13;;;15.70;94.70;;;;;;5012542;28;20030;-49
2023/03/17 11:58:32;;;;;;;6.82;5.03;;;15.70;94.90;;;;;;5012489;28;20026;-49
2023/03/17 12:01:00;;;;;;;7.13;5.05;;;15.70;94.00;;;;;;5012049;28;20036;-51
2023/03/17 12:03:40;;;;;;;6.80;5.13;;;15.70;93.70;;;;;;5011793;28;20080;-49
2023/03/17 12:06:16;;;;;;;7.95;5.32;;;15.60;94.10;;;;;;4994274;28;20092;-48
2023/03/17 12:08:59;;;;;;;12.65;5.13;;;15.50;94.30;;;;;;5012302;28;20029;-48
2023/03/17 12:11:30;;;;;;;11.55;5.60;;;15.50;94.50;;;;;;4994059;28;20026;-51
2023/03/17 12:14:03;;;;;;;7.45;5.82;;;15.50;94.70;;;;;;5012460;28;20136;-51
2023/03/17 12:16:44;;;;;;;6.55;5.13;;;15.50;94.50;;;;;;5011978;28;20056;-48
2023/03/17 12:19:28;;;;;;;9.48;5.55;;;15.40;94.80;;;;;;5011838;28;20049;-54
2023/03/17 12:22:12;;;;;;;7.97;5.40;;;15.30;95.10;;;;;;5012114;28;20086;-49
2023/03/17 12:24:45;;;;;;;10.00;5.53;;;15.40;95.40;;;;;;5011893;28;20069;-53
2023/03/17 12:27:28;;;;;;;13.02;5.78;;;15.50;95.20;;;;;;5011410;28;20037;-49
2023/03/17 12:30:23;;;;;;;11.57;5.53;;;15.50;95.50;;;;;;5011423;28;20048;-48
2023/03/17 12:33:09;;;;;;;10.35;6.50;;;15.40;95.40;;;;;;5011487;28;20091;-51
2023/03/17 12:35:37;;;;;;;8.43;5.97;;;15.40;95.40;;;;;;5012412;28;20022;-46
2023/03/17 12:38:30;;;;;;;8.07;5.97;;;15.40;95.90;;;;;;4994494;28;20060;-49
2023/03/17 12:41:26;;;;;;;7.07;5.35;;;15.40;95.80;;;;;;5011747;28;20030;-49
2023/03/17 12:44:15;;;;;;;10.48;5.78;;;15.50;96.00;;;;;;5012347;28;20034;-48
2023/03/17 12:46:57;;;;;;;7.20;5.68;;;;;;;;;;5011958;28;20030;-47
2023/03/17 12:49:28;;;;;;;7.57;6.00;;;15.80;95.70;;;;;;5012389;28;20301;-48
2023/03/17 12:52:22;;;;;;;11.82;6.07;;;15.70;95.80;;;;;;5012164;28;20110;-50
2023/03/17 12:54:50;;;;;;;14.07;6.22;;;15.70;95.30;;;;;;5011767;28;20374;-49
2023/03/17 12:57:28;;;;;;;9.43;5.72;;;15.70;95.40;;;;;;5012483;28;20022;-46
2023/03/17 13:00:16;;;;;;;8.18;5.30;;;15.70;95.80;;;;;;5011768;28;20032;-48
2023/03/17 13:02:47;;;;;;;7.30;5.63;;;15.60;96.20;;;;;;5060156;22;20037;-57